createdAt,value
2022-11-29T00:01:42.297Z,6.40
2022-11-29T00:04:09.173Z,6.50
2022-11-29T00:06:36.072Z,6.40
2022-11-29T00:09:06.504Z,6.40
2022-11-29T00:11:53.167Z,6.30
2022-11-29T00:14:20.010Z,6.30
2022-11-29T00:16:49.946Z,6.10
2022-11-29T00:19:16.646Z,6.10
2022-11-29T00:21:43.342Z,6.00
2022-11-29T00:24:10.323Z,6.10
2022-11-29T00:26:39.952Z,6.20
2022-11-29T00:29:06.649Z,6.20
2022-11-29T00:31:33.683Z,6.20
2022-11-29T00:34:01.405Z,6.20
2022-11-29T00:36:28.199Z,6.10
2022-11-29T00:38:54.903Z,6.20
2022-11-29T00:41:21.641Z,6.30
2022-11-29T00:43:48.366Z,6.30
2022-11-29T00:46:15.130Z,6.20
2022-11-29T00:48:41.891Z,6.20
2022-11-29T00:51:08.643Z,6.10
2022-11-29T00:53:35.428Z,6.00
2022-11-29T00:56:02.216Z,6.00
2022-11-29T00:58:28.976Z,5.90
2022-11-29T01:00:55.761Z,5.90
2022-11-29T01:03:22.591Z,5.80
2022-11-29T01:05:49.341Z,5.40
2022-11-29T01:08:16.164Z,5.40
2022-11-29T01:10:42.873Z,5.50
2022-11-29T01:13:09.698Z,5.50
2022-11-29T01:15:36.631Z,5.70
2022-11-29T01:18:03.431Z,6.00
2022-11-29T01:20:30.134Z,6.00
2022-11-29T01:22:56.813Z,6.10
2022-11-29T01:25:23.510Z,6.00
2022-11-29T01:27:50.256Z,6.20
2022-11-29T01:30:17.040Z,5.60
2022-11-29T01:32:43.725Z,5.70
2022-11-29T01:35:10.540Z,5.80
2022-11-29T01:37:37.285Z,5.90
2022-11-29T01:40:04.177Z,5.80
2022-11-29T01:42:30.888Z,5.90
2022-11-29T01:45:01.652Z,6.10
2022-11-29T01:47:28.455Z,6.00
2022-11-29T01:49:55.231Z,5.80
2022-11-29T01:52:26.028Z,5.70
2022-11-29T01:54:54.726Z,5.70
2022-11-29T01:57:21.630Z,5.70
2022-11-29T01:59:52.572Z,6.00
2022-11-29T02:02:23.040Z,6.10
2022-11-29T02:04:49.796Z,6.20
2022-11-29T02:07:16.699Z,5.90
2022-11-29T02:09:43.403Z,6.00
2022-11-29T02:12:10.077Z,5.70
2022-11-29T02:14:44.037Z,5.70
2022-11-29T02:17:29.337Z,5.70
2022-11-29T02:20:11.475Z,5.50
2022-11-29T02:22:38.199Z,5.50
2022-11-29T02:25:23.648Z,5.50
2022-11-29T02:27:53.473Z,5.20
2022-11-29T02:30:23.264Z,5.60
2022-11-29T02:33:10.275Z,5.80
2022-11-29T02:35:36.946Z,6.00
2022-11-29T02:38:23.912Z,6.10
2022-11-29T02:40:53.394Z,5.90
2022-11-29T02:43:32.501Z,5.90
2022-11-29T02:46:17.811Z,5.90
2022-11-29T02:48:55.706Z,5.70
2022-11-29T02:51:42.782Z,5.80
2022-11-29T02:54:12.514Z,5.70
2022-11-29T02:56:51.951Z,5.80
2022-11-29T02:59:34.755Z,5.70
2022-11-29T03:02:20.207Z,5.70
2022-11-29T03:04:50.837Z,5.80
2022-11-29T03:07:25.327Z,5.80
2022-11-29T03:09:55.910Z,5.80
2022-11-29T03:12:34.177Z,5.70
2022-11-29T03:15:06.987Z,6.00
2022-11-29T03:17:48.751Z,5.80
2022-11-29T03:20:15.447Z,6.00
2022-11-29T03:22:42.134Z,6.20
2022-11-29T03:25:08.976Z,6.10
2022-11-29T03:27:35.693Z,6.20
2022-11-29T03:30:03.480Z,6.00
2022-11-29T03:32:33.150Z,5.90
2022-11-29T03:35:03.357Z,6.10
2022-11-29T03:37:35.666Z,6.10
2022-11-29T03:40:04.814Z,6.00
2022-11-29T03:42:33.058Z,6.10
2022-11-29T03:45:03.452Z,6.10
2022-11-29T03:47:31.513Z,5.80
2022-11-29T03:50:08.371Z,5.40
2022-11-29T03:52:46.581Z,5.60
2022-11-29T03:55:32.614Z,5.60
2022-11-29T03:58:02.089Z,5.50
2022-11-29T04:00:52.078Z,5.70
2022-11-29T04:03:21.728Z,5.70
2022-11-29T04:06:03.527Z,5.70
2022-11-29T04:08:42.580Z,5.30
2022-11-29T04:11:28.178Z,5.40
2022-11-29T04:14:07.316Z,5.70
2022-11-29T04:16:34.042Z,5.60
2022-11-29T04:19:09.982Z,5.80
2022-11-29T04:21:55.465Z,5.90
2022-11-29T04:24:31.479Z,6.00
2022-11-29T04:27:13.471Z,6.00
2022-11-29T04:29:43.294Z,6.00
2022-11-29T04:32:28.708Z,5.70
2022-11-29T04:35:07.614Z,5.80
2022-11-29T04:37:54.829Z,5.80
2022-11-29T04:40:40.393Z,5.90
2022-11-29T04:43:33.501Z,6.00
2022-11-29T04:46:00.262Z,6.00
2022-11-29T04:48:38.981Z,6.10
2022-11-29T04:51:08.711Z,6.10
2022-11-29T04:53:47.745Z,6.00
2022-11-29T04:56:41.318Z,6.10
2022-11-29T04:59:28.294Z,6.00
2022-11-29T05:01:58.337Z,5.90
2022-11-29T05:04:27.419Z,5.90
2022-11-29T05:07:12.852Z,5.80
2022-11-29T05:10:09.126Z,5.90
2022-11-29T05:12:39.859Z,5.70
2022-11-29T05:15:42.151Z,5.70
2022-11-29T05:18:14.566Z,5.60
2022-11-29T05:20:48.623Z,5.90
2022-11-29T05:23:34.195Z,5.70
2022-11-29T05:26:01.139Z,6.00
2022-11-29T05:28:43.161Z,5.90
2022-11-29T05:31:28.759Z,5.90
2022-11-29T05:34:13.741Z,6.00
2022-11-29T05:36:46.451Z,5.90
2022-11-29T05:39:16.205Z,6.00
2022-11-29T05:41:45.733Z,6.00
2022-11-29T05:44:17.353Z,5.90
2022-11-29T05:46:44.101Z,6.00
2022-11-29T05:49:18.929Z,6.10
2022-11-29T05:51:52.959Z,6.10
2022-11-29T05:54:31.805Z,6.00
2022-11-29T05:57:10.777Z,6.00
2022-11-29T05:59:37.976Z,5.90
2022-11-29T06:02:05.319Z,5.60
2022-11-29T06:04:50.681Z,5.70
2022-11-29T06:07:31.283Z,5.70
2022-11-29T06:10:02.128Z,5.80
2022-11-29T06:12:31.972Z,5.70
2022-11-29T06:15:06.566Z,5.80
2022-11-29T06:17:42.420Z,5.80
2022-11-29T06:20:11.024Z,5.70
2022-11-29T06:22:44.062Z,5.60
2022-11-29T06:25:11.084Z,5.60
2022-11-29T06:27:37.763Z,5.60
2022-11-29T06:30:04.444Z,5.70
2022-11-29T06:32:34.269Z,5.70
2022-11-29T06:35:05.264Z,5.80
2022-11-29T06:37:38.759Z,5.80
2022-11-29T06:40:06.214Z,5.70
2022-11-29T06:42:32.969Z,5.60
2022-11-29T06:44:59.783Z,5.60
2022-11-29T06:47:38.758Z,5.50
2022-11-29T06:50:15.792Z,5.50
2022-11-29T06:52:51.875Z,5.50
2022-11-29T06:55:28.203Z,5.30
2022-11-29T06:58:07.103Z,5.60
2022-11-29T07:00:42.811Z,5.40
2022-11-29T07:03:15.725Z,5.40
2022-11-29T07:05:42.600Z,5.50
2022-11-29T07:08:16.317Z,5.60
2022-11-29T07:10:43.328Z,5.60
2022-11-29T07:13:11.427Z,5.40
2022-11-29T07:15:38.177Z,5.10
2022-11-29T07:18:07.705Z,5.10
2022-11-29T07:20:43.487Z,5.00
2022-11-29T07:23:28.890Z,4.90
2022-11-29T07:26:17.252Z,4.70
2022-11-29T07:28:43.984Z,5.00
2022-11-29T07:31:16.911Z,4.90
2022-11-29T07:33:46.607Z,5.00
2022-11-29T07:36:26.296Z,5.20
2022-11-29T07:38:53.068Z,5.50
2022-11-29T07:41:38.767Z,5.10
2022-11-29T07:44:05.439Z,4.80
2022-11-29T07:46:32.219Z,5.10
2022-11-29T07:48:58.960Z,5.40
2022-11-29T07:51:25.627Z,5.50
2022-11-29T07:53:52.430Z,5.30
2022-11-29T07:56:19.129Z,5.40
2022-11-29T07:58:45.959Z,5.50
2022-11-29T08:01:12.838Z,5.60
2022-11-29T08:03:41.136Z,5.60
2022-11-29T08:06:07.900Z,5.30
2022-11-29T08:08:39.130Z,5.50
2022-11-29T08:11:12.212Z,5.50
2022-11-29T08:13:38.920Z,5.70
2022-11-29T08:16:05.792Z,5.70
2022-11-29T08:18:32.634Z,5.80
2022-11-29T08:20:59.360Z,5.70
2022-11-29T08:23:26.051Z,5.40
2022-11-29T08:25:58.409Z,5.60
2022-11-29T08:28:25.124Z,5.50
2022-11-29T08:30:51.868Z,5.50
2022-11-29T08:33:18.668Z,5.50
2022-11-29T08:35:45.395Z,5.50
2022-11-29T08:38:12.122Z,5.50
2022-11-29T08:40:38.808Z,5.50
2022-11-29T08:43:05.554Z,5.70
2022-11-29T08:45:32.374Z,5.60
2022-11-29T08:47:59.158Z,5.60
2022-11-29T08:50:25.862Z,5.80
2022-11-29T08:53:27.790Z,5.70
2022-11-29T08:55:54.529Z,5.60
2022-11-29T08:58:21.578Z,5.70
2022-11-29T09:00:48.712Z,5.70
2022-11-29T09:03:34.037Z,5.40
2022-11-29T09:06:12.523Z,5.10
2022-11-29T09:08:39.835Z,5.40
2022-11-29T09:11:13.207Z,5.60
2022-11-29T09:13:44.625Z,5.70
2022-11-29T09:16:12.404Z,5.80
2022-11-29T09:18:39.315Z,5.70
2022-11-29T09:21:06.898Z,5.50
2022-11-29T09:23:33.750Z,5.60
2022-11-29T09:26:00.509Z,5.80
2022-11-29T09:28:27.433Z,6.10
2022-11-29T09:30:54.252Z,6.10
2022-11-29T09:33:21.086Z,6.00
2022-11-29T09:35:48.115Z,6.10
2022-11-29T09:38:15.058Z,6.00
2022-11-29T09:41:02.077Z,6.00
2022-11-29T09:44:00.709Z,6.20
2022-11-29T09:46:36.454Z,6.10
2022-11-29T09:49:18.447Z,6.00
2022-11-29T09:51:51.746Z,6.00
2022-11-29T09:54:24.938Z,5.70
2022-11-29T09:56:52.006Z,5.90
2022-11-29T09:59:22.822Z,5.90
2022-11-29T10:01:54.734Z,6.00
2022-11-29T10:04:22.634Z,6.00
2022-11-29T10:06:58.781Z,5.90
2022-11-29T10:09:33.530Z,5.80
2022-11-29T10:12:04.256Z,5.90
2022-11-29T10:14:32.431Z,5.90
2022-11-29T10:17:05.651Z,5.90
2022-11-29T10:19:38.685Z,6.00
2022-11-29T10:22:06.420Z,5.90
2022-11-29T10:24:33.266Z,5.80
2022-11-29T10:27:00.031Z,5.90
2022-11-29T10:29:26.802Z,5.80
2022-11-29T10:31:56.693Z,5.80
2022-11-29T10:34:24.203Z,5.30
2022-11-29T10:37:02.307Z,5.50
2022-11-29T10:39:39.793Z,5.70
2022-11-29T10:42:27.139Z,5.80
2022-11-29T10:44:53.897Z,5.60
2022-11-29T10:47:20.934Z,5.80
2022-11-29T10:49:47.737Z,5.70
2022-11-29T10:52:20.821Z,5.80
2022-11-29T10:54:47.907Z,5.80
2022-11-29T10:57:16.588Z,6.00
2022-11-29T10:59:57.796Z,6.10
2022-11-29T11:02:24.643Z,6.10
2022-11-29T11:04:51.542Z,6.00
2022-11-29T11:07:35.866Z,6.20
2022-11-29T11:10:06.482Z,6.20
2022-11-29T11:12:33.855Z,6.20
2022-11-29T11:15:18.795Z,6.20
2022-11-29T11:18:05.152Z,6.00
2022-11-29T11:20:32.420Z,6.10
2022-11-29T11:23:03.598Z,6.00
2022-11-29T11:25:31.195Z,6.10
2022-11-29T11:27:57.944Z,6.10
2022-11-29T11:30:25.537Z,6.00
2022-11-29T11:33:07.499Z,6.10
2022-11-29T11:35:34.296Z,6.20
2022-11-29T11:38:01.058Z,5.80
2022-11-29T11:40:29.379Z,5.80
2022-11-29T11:42:59.508Z,5.80
2022-11-29T11:45:35.489Z,6.00
2022-11-29T11:48:11.619Z,5.90
2022-11-29T11:50:44.974Z,5.80
2022-11-29T11:53:19.223Z,5.70
2022-11-29T11:55:59.338Z,5.40
2022-11-29T11:58:27.666Z,5.40
2022-11-29T12:01:06.567Z,5.60
2022-11-29T12:03:36.648Z,5.90
2022-11-29T12:06:08.101Z,6.00
2022-11-29T12:08:34.864Z,5.90
2022-11-29T12:11:07.262Z,5.80
2022-11-29T12:13:35.791Z,6.00
2022-11-29T12:16:04.302Z,5.80
2022-11-29T12:18:36.102Z,5.90
2022-11-29T12:21:03.177Z,5.80
2022-11-29T12:23:32.695Z,6.00
2022-11-29T12:26:49.031Z,6.00
2022-11-29T12:29:19.201Z,5.90
2022-11-29T12:31:45.893Z,5.70
2022-11-29T12:34:31.487Z,5.60
2022-11-29T12:37:04.771Z,5.60
2022-11-29T12:39:42.462Z,5.60
2022-11-29T12:42:27.908Z,5.60
2022-11-29T12:44:57.155Z,5.80
2022-11-29T12:47:39.434Z,5.70
2022-11-29T12:50:12.527Z,5.60
2022-11-29T12:52:42.698Z,5.80
2022-11-29T12:55:18.606Z,5.70
2022-11-29T12:57:54.085Z,5.60
2022-11-29T13:00:20.923Z,5.70
2022-11-29T13:02:53.875Z,5.80
2022-11-29T13:05:42.137Z,5.60
2022-11-29T13:08:27.942Z,5.50
2022-11-29T13:11:07.172Z,5.70
2022-11-29T13:13:38.350Z,5.80
2022-11-29T13:16:05.112Z,5.90
2022-11-29T13:18:50.045Z,5.90
2022-11-29T13:21:18.292Z,5.90
2022-11-29T13:24:11.421Z,5.80
2022-11-29T13:26:38.621Z,5.60
2022-11-29T13:29:05.403Z,5.60
2022-11-29T13:31:32.208Z,5.60
2022-11-29T13:34:05.082Z,5.60
2022-11-29T13:36:42.779Z,5.70
2022-11-29T13:39:15.606Z,5.70
2022-11-29T13:41:50.402Z,5.70
2022-11-29T13:44:21.558Z,5.70
2022-11-29T13:47:04.351Z,5.70
2022-11-29T13:49:49.719Z,5.80
2022-11-29T13:52:25.004Z,5.60
2022-11-29T13:55:03.765Z,5.60
2022-11-29T13:57:54.144Z,5.50
2022-11-29T14:00:31.777Z,5.60
2022-11-29T14:03:18.582Z,5.60
2022-11-29T14:05:45.685Z,5.50
2022-11-29T14:08:37.879Z,5.40
2022-11-29T14:11:14.743Z,5.40
2022-11-29T14:13:41.441Z,5.60
2022-11-29T14:16:13.303Z,5.60
2022-11-29T14:18:43.606Z,5.50
2022-11-29T14:21:10.612Z,5.60
2022-11-29T14:23:38.337Z,5.60
2022-11-29T14:26:05.205Z,5.70
2022-11-29T14:28:35.382Z,5.60
2022-11-29T14:31:02.581Z,5.70
2022-11-29T14:33:31.990Z,5.50
2022-11-29T14:36:04.863Z,5.50
2022-11-29T14:38:51.825Z,5.50
2022-11-29T14:41:21.384Z,5.50
2022-11-29T14:43:48.068Z,5.50
2022-11-29T14:46:14.829Z,5.60
2022-11-29T14:48:45.687Z,5.50
2022-11-29T14:51:18.922Z,5.30
2022-11-29T14:53:46.250Z,5.20
2022-11-29T14:56:31.322Z,5.30
2022-11-29T14:59:16.867Z,5.40
2022-11-29T15:01:43.880Z,5.30
2022-11-29T15:04:10.746Z,5.20
2022-11-29T15:06:44.099Z,5.20
2022-11-29T15:09:15.469Z,5.20
2022-11-29T15:11:47.948Z,5.10
2022-11-29T15:14:29.931Z,5.10
2022-11-29T15:17:02.833Z,5.10
2022-11-29T15:19:38.703Z,5.20
2022-11-29T15:22:14.452Z,5.20
2022-11-29T15:24:51.188Z,5.20
2022-11-29T15:27:18.311Z,5.20
2022-11-29T15:29:48.254Z,5.10
2022-11-29T15:32:16.942Z,5.10
2022-11-29T15:34:47.147Z,5.30
2022-11-29T15:37:46.527Z,5.20
2022-11-29T15:40:14.738Z,5.20
2022-11-29T15:42:42.976Z,5.30
2022-11-29T15:45:25.894Z,5.20
2022-11-29T15:47:52.852Z,5.20
2022-11-29T15:50:25.629Z,5.30
2022-11-29T15:52:53.179Z,5.30
2022-11-29T15:55:19.933Z,5.40
2022-11-29T15:57:47.814Z,5.50
2022-11-29T16:00:20.241Z,5.50
2022-11-29T16:02:54.556Z,5.50
2022-11-29T16:05:24.984Z,5.60
2022-11-29T16:07:52.753Z,5.40
2022-11-29T16:10:20.328Z,5.50
2022-11-29T16:12:57.824Z,5.40
2022-11-29T16:15:24.588Z,5.40
2022-11-29T16:17:51.332Z,5.40
2022-11-29T16:20:18.717Z,5.60
2022-11-29T16:22:45.485Z,5.70
2022-11-29T16:25:15.828Z,5.60
2022-11-29T16:27:42.583Z,5.60
2022-11-29T16:30:22.313Z,5.70
2022-11-29T16:32:50.824Z,5.60
2022-11-29T16:35:17.601Z,5.70
2022-11-29T16:37:44.525Z,5.60
2022-11-29T16:40:24.719Z,5.70
2022-11-29T16:43:14.426Z,5.70
2022-11-29T16:45:41.507Z,5.50
2022-11-29T16:48:25.533Z,5.50
2022-11-29T16:51:13.750Z,5.50
2022-11-29T16:53:44.191Z,5.50
2022-11-29T16:56:11.761Z,5.60
2022-11-29T16:58:43.047Z,5.60
2022-11-29T17:01:26.526Z,5.60
2022-11-29T17:03:53.553Z,5.70
2022-11-29T17:06:23.792Z,5.70
2022-11-29T17:08:50.948Z,5.70
2022-11-29T17:11:17.701Z,5.70
2022-11-29T17:13:44.498Z,5.70
2022-11-29T17:16:13.159Z,5.60
2022-11-29T17:18:42.206Z,5.60
2022-11-29T17:21:35.413Z,5.70
2022-11-29T17:24:02.133Z,5.60
2022-11-29T17:26:28.832Z,5.60
2022-11-29T17:28:55.572Z,5.60
2022-11-29T17:31:23.037Z,5.70
2022-11-29T17:33:50.081Z,5.40
2022-11-29T17:36:17.918Z,5.60
2022-11-29T17:38:44.813Z,5.60
2022-11-29T17:41:15.338Z,5.60
2022-11-29T17:43:42.327Z,5.70
2022-11-29T17:46:09.653Z,5.70
2022-11-29T17:48:36.685Z,5.70
2022-11-29T17:51:06.938Z,5.80
2022-11-29T17:53:40.246Z,5.80
2022-11-29T17:56:07.882Z,5.70
2022-11-29T17:58:34.774Z,5.60
2022-11-29T18:01:04.995Z,5.60
2022-11-29T18:03:31.816Z,5.80
2022-11-29T18:06:00.245Z,5.70
2022-11-29T18:08:27.446Z,5.60
2022-11-29T18:11:02.259Z,5.60
2022-11-29T18:13:29.003Z,5.60
2022-11-29T18:16:01.998Z,5.40
2022-11-29T18:18:28.748Z,5.60
2022-11-29T18:20:59.436Z,5.60
2022-11-29T18:23:29.432Z,5.50
2022-11-29T18:25:59.973Z,5.30
2022-11-29T18:28:26.984Z,5.50
2022-11-29T18:30:53.869Z,5.70
2022-11-29T18:33:20.641Z,5.70
2022-11-29T18:35:47.430Z,5.70
2022-11-29T18:38:15.966Z,5.70
2022-11-29T18:40:43.310Z,5.80
2022-11-29T18:43:10.068Z,5.60
2022-11-29T18:45:37.231Z,5.70
2022-11-29T18:48:04.348Z,5.70
2022-11-29T18:50:31.708Z,5.60
2022-11-29T18:52:58.989Z,5.70
2022-11-29T18:55:25.907Z,5.70
2022-11-29T18:57:55.535Z,5.80
2022-11-29T19:00:22.348Z,5.70
2022-11-29T19:02:49.105Z,5.70
2022-11-29T19:05:15.947Z,5.80
2022-11-29T19:07:42.666Z,5.70
2022-11-29T19:10:09.596Z,5.80
2022-11-29T19:12:36.295Z,5.70
2022-11-29T19:15:03.380Z,5.70
2022-11-29T19:17:30.094Z,5.30
2022-11-29T19:19:56.839Z,5.50
2022-11-29T19:22:23.595Z,5.50
2022-11-29T19:24:50.359Z,5.50
2022-11-29T19:27:17.038Z,5.60
2022-11-29T19:29:43.804Z,5.50
2022-11-29T19:32:11.248Z,5.70
2022-11-29T19:34:37.944Z,5.50
2022-11-29T19:37:04.687Z,5.10
2022-11-29T19:39:31.349Z,5.40
2022-11-29T19:41:58.151Z,5.60
2022-11-29T19:44:29.796Z,5.30
2022-11-29T19:46:56.957Z,5.50
2022-11-29T19:49:23.723Z,5.60
2022-11-29T19:51:50.451Z,5.70
2022-11-29T19:54:17.280Z,5.60
2022-11-29T19:56:44.031Z,5.40
2022-11-29T19:59:10.967Z,5.50
2022-11-29T20:01:42.666Z,5.40
2022-11-29T20:04:10.228Z,5.50
2022-11-29T20:06:37.134Z,5.50
2022-11-29T20:09:04.069Z,5.60
2022-11-29T20:11:31.046Z,5.60
2022-11-29T20:13:58.580Z,5.60
2022-11-29T20:16:25.508Z,5.60
2022-11-29T20:18:53.063Z,5.60
2022-11-29T20:21:20.896Z,5.70
2022-11-29T20:23:47.920Z,5.70
2022-11-29T20:26:17.948Z,5.60
2022-11-29T20:28:44.892Z,5.70
2022-11-29T20:31:12.997Z,5.60
2022-11-29T20:33:40.919Z,5.70
2022-11-29T20:36:26.058Z,5.60
2022-11-29T20:39:08.106Z,5.60
2022-11-29T20:41:43.980Z,5.60
2022-11-29T20:44:11.131Z,5.60
2022-11-29T20:46:38.008Z,5.60
2022-11-29T20:49:06.745Z,5.60
2022-11-29T20:51:37.042Z,5.60
2022-11-29T20:54:03.790Z,5.60
2022-11-29T20:56:30.495Z,5.70
2022-11-29T20:58:57.389Z,5.60
2022-11-29T21:01:24.256Z,5.70
2022-11-29T21:03:51.171Z,5.60
2022-11-29T21:06:17.951Z,5.60
2022-11-29T21:08:44.725Z,5.60
2022-11-29T21:11:11.653Z,5.70
2022-11-29T21:13:38.579Z,5.60
2022-11-29T21:16:05.481Z,5.60
2022-11-29T21:18:32.452Z,5.60
2022-11-29T21:21:22.966Z,5.60
2022-11-29T21:23:49.779Z,5.60
2022-11-29T21:26:17.613Z,5.30
2022-11-29T21:28:49.361Z,5.00
2022-11-29T21:31:16.142Z,5.40
2022-11-29T21:33:43.196Z,5.50
2022-11-29T21:36:09.965Z,5.30
2022-11-29T21:38:36.914Z,5.50
2022-11-29T21:41:03.659Z,5.70
2022-11-29T21:44:04.309Z,5.70
2022-11-29T21:46:17.360Z,5.70
2022-11-29T21:48:44.591Z,5.70
2022-11-29T21:51:11.487Z,5.90
2022-11-29T21:53:38.594Z,5.80
2022-11-29T21:56:06.243Z,5.70
2022-11-29T21:58:33.629Z,5.60
2022-11-29T22:01:16.258Z,5.50
2022-11-29T22:03:43.192Z,5.30
2022-11-29T22:06:11.030Z,5.40
2022-11-29T22:08:41.070Z,5.50
2022-11-29T22:11:08.767Z,5.60
2022-11-29T22:13:36.116Z,5.60
2022-11-29T22:16:07.408Z,5.70
2022-11-29T22:18:34.685Z,5.70
2022-11-29T22:21:02.139Z,5.70
2022-11-29T22:23:28.950Z,5.60
2022-11-29T22:25:55.720Z,5.50
2022-11-29T22:28:22.433Z,5.60
2022-11-29T22:30:49.214Z,5.60
2022-11-29T22:33:18.290Z,5.40
2022-11-29T22:35:45.262Z,5.50
2022-11-29T22:38:12.136Z,5.10
2022-11-29T22:40:38.879Z,5.10
2022-11-29T22:43:05.702Z,5.50
2022-11-29T22:45:32.468Z,5.60
2022-11-29T22:47:59.159Z,5.80
2022-11-29T22:50:25.984Z,5.80
2022-11-29T22:52:53.602Z,5.80
2022-11-29T22:55:20.414Z,5.80
2022-11-29T22:57:47.141Z,5.60
2022-11-29T23:00:15.627Z,5.50
2022-11-29T23:02:42.366Z,5.70
2022-11-29T23:05:09.169Z,5.80
2022-11-29T23:07:36.127Z,5.70
2022-11-29T23:10:03.442Z,5.50
2022-11-29T23:12:30.147Z,4.90
2022-11-29T23:14:57.363Z,4.80
2022-11-29T23:17:24.677Z,5.10
2022-11-29T23:19:51.388Z,5.00
2022-11-29T23:22:18.192Z,5.30
2022-11-29T23:24:45.112Z,5.50
2022-11-29T23:27:12.134Z,5.70
2022-11-29T23:29:38.910Z,5.80
2022-11-29T23:32:05.727Z,5.90
2022-11-29T23:34:32.510Z,5.90
2022-11-29T23:36:59.281Z,6.00
2022-11-29T23:39:26.155Z,5.80
2022-11-29T23:41:52.887Z,5.80
2022-11-29T23:44:19.739Z,5.80
2022-11-29T23:46:46.656Z,5.80
2022-11-29T23:49:13.573Z,5.80
2022-11-29T23:51:40.364Z,5.70
2022-11-29T23:54:07.122Z,5.80
2022-11-29T23:56:35.479Z,5.50
2022-11-29T23:59:02.711Z,5.50
